Time,TemperatureF,DewpointF,PressureIn,WindDirection,WindDirectionDegrees,WindSpeedMPH,WindSpeedGustMPH,Humidity,HourlyPrecipIn,Conditions,Clouds,dailyrainin,SoftwareType,DateUTC
2013-05-25 00:01:00,60.0,40.2,30.17,WNW,292,1.0,3.0,48,0.00,,,0.00,Wunderground v.1.15,2013-05-25 04:01:00,
2013-05-25 00:11:00,59.5,40.3,30.17,North,350,1.0,2.0,49,0.00,,,0.00,Wunderground v.1.15,2013-05-25 04:11:00,
2013-05-25 00:21:00,59.0,40.9,30.17,NNE,30,0.0,0.0,51,0.00,,,0.00,Wunderground v.1.15,2013-05-25 04:21:00,
2013-05-25 00:31:00,58.6,41.0,30.17,NNW,343,0.0,0.0,52,0.00,,,0.00,Wunderground v.1.15,2013-05-25 04:31:00,
2013-05-25 00:41:00,58.0,41.9,30.17,NNW,344,1.0,1.0,55,0.00,,,0.00,Wunderground v.1.15,2013-05-25 04:41:00,
2013-05-25 00:51:00,56.6,42.9,30.17,North,355,0.0,0.0,60,0.00,,,0.00,Wunderground v.1.15,2013-05-25 04:51:00,
2013-05-25 01:01:00,55.1,42.7,30.17,NW,306,0.0,0.0,63,0.00,,,0.00,Wunderground v.1.15,2013-05-25 05:01:00,
2013-05-25 01:11:00,53.6,43.3,30.17,NW,306,0.0,0.0,68,0.00,,,0.00,Wunderground v.1.15,2013-05-25 05:11:00,
2013-05-25 01:21:00,54.4,43.3,30.17,NW,318,0.0,1.0,66,0.00,,,0.00,Wunderground v.1.15,2013-05-25 05:21:00,
2013-05-25 01:31:00,56.0,42.3,30.18,NNW,339,1.0,1.0,60,0.00,,,0.00,Wunderground v.1.15,2013-05-25 05:31:00,
2013-05-25 01:41:00,56.3,42.1,30.17,NW,324,1.0,1.0,59,0.00,,,0.00,Wunderground v.1.15,2013-05-25 05:41:00,
2013-05-25 01:51:00,56.4,41.3,30.18,WNW,287,1.0,1.0,57,0.00,,,0.00,Wunderground v.1.15,2013-05-25 05:51:00,
2013-05-25 02:01:00,56.2,41.2,30.18,NW,311,0.0,0.0,57,0.00,,,0.00,Wunderground v.1.15,2013-05-25 06:01:00,
2013-05-25 02:11:00,54.6,41.8,30.18,NW,311,0.0,1.0,62,0.00,,,0.00,Wunderground v.1.15,2013-05-25 06:11:00,
2013-05-25 02:21:00,54.4,42.5,30.17,NW,311,1.0,1.0,64,0.00,,,0.00,Wunderground v.1.15,2013-05-25 06:21:00,
2013-05-25 02:31:00,52.5,42.2,30.18,NW,311,0.0,0.0,68,0.00,,,0.00,Wunderground v.1.15,2013-05-25 06:31:00,
2013-05-25 02:41:00,51.1,43.1,30.18,NW,311,0.0,0.0,74,0.00,,,0.00,Wunderground v.1.15,2013-05-25 06:41:00,
2013-05-25 02:51:00,50.1,43.2,30.18,NW,311,0.0,0.0,77,0.00,,,0.00,Wunderground v.1.15,2013-05-25 06:51:00,
2013-05-25 03:01:00,50.2,43.3,30.18,NNW,331,0.0,0.0,77,0.00,,,0.00,Wunderground v.1.15,2013-05-25 07:01:00,
2013-05-25 03:11:00,51.1,43.4,30.18,NNW,331,0.0,0.0,75,0.00,,,0.00,Wunderground v.1.15,2013-05-25 07:11:00,
2013-05-25 03:21:00,49.0,43.4,30.17,NNW,348,0.0,0.0,81,0.00,,,0.00,Wunderground v.1.15,2013-05-25 07:21:00,
2013-05-25 03:31:00,50.5,42.2,30.17,North,9,0.0,0.0,73,0.00,,,0.00,Wunderground v.1.15,2013-05-25 07:31:00,
2013-05-25 03:41:00,50.3,42.7,30.17,North,9,0.0,0.0,75,0.00,,,0.00,Wunderground v.1.15,2013-05-25 07:41:00,
2013-05-25 03:51:00,49.5,43.6,30.17,North,9,0.0,0.0,80,0.00,,,0.00,Wunderground v.1.15,2013-05-25 07:51:00,
2013-05-25 04:01:00,47.8,42.6,30.18,North,9,0.0,0.0,82,0.00,,,0.00,Wunderground v.1.15,2013-05-25 08:01:00,
2013-05-25 04:11:00,47.6,43.0,30.18,NNW,346,1.0,1.0,84,0.00,,,0.00,Wunderground v.1.15,2013-05-25 08:11:00,
2013-05-25 04:21:00,50.1,43.2,30.18,North,355,1.0,1.0,77,0.00,,,0.00,Wunderground v.1.15,2013-05-25 08:21:00,
2013-05-25 04:31:00,48.9,42.3,30.18,SW,225,1.0,1.0,78,0.00,,,0.00,Wunderground v.1.15,2013-05-25 08:31:00,
2013-05-25 04:41:00,49.2,42.6,30.19,West,277,1.0,1.0,78,0.00,,,0.00,Wunderground v.1.15,2013-05-25 08:41:00,
2013-05-25 04:51:00,47.4,42.2,30.19,West,277,0.0,0.0,82,0.00,,,0.00,Wunderground v.1.15,2013-05-25 08:51:00,
2013-05-25 05:01:00,47.3,43.0,30.19,West,277,0.0,0.0,85,0.00,,,0.00,Wunderground v.1.15,2013-05-25 09:01:00,
2013-05-25 05:11:00,46.3,42.3,30.19,West,277,0.0,0.0,86,0.00,,,0.00,Wunderground v.1.15,2013-05-25 09:11:00,
2013-05-25 05:21:00,45.1,41.5,30.19,West,277,0.0,0.0,87,0.00,,,0.00,Wunderground v.1.15,2013-05-25 09:21:00,
2013-05-25 05:31:00,46.0,42.9,30.19,West,277,0.0,1.0,89,0.00,,,0.00,Wunderground v.1.15,2013-05-25 09:31:00,
2013-05-25 05:41:00,44.5,41.5,30.19,SW,217,0.0,0.0,89,0.00,,,0.00,Wunderground v.1.15,2013-05-25 09:41:00,
2013-05-25 05:51:00,45.1,42.3,30.20,SW,217,0.0,0.0,90,0.00,,,0.00,Wunderground v.1.15,2013-05-25 09:51:00,
2013-05-25 06:01:00,44.4,41.4,30.21,SW,217,0.0,0.0,89,0.00,,,0.00,Wunderground v.1.15,2013-05-25 10:01:00,
2013-05-25 06:11:00,43.8,41.6,30.21,SW,222,0.0,2.0,92,0.00,,,0.00,Wunderground v.1.15,2013-05-25 10:11:00,
2013-05-25 06:21:00,44.2,41.5,30.21,SW,230,1.0,1.0,90,0.00,,,0.00,Wunderground v.1.15,2013-05-25 10:21:00,
2013-05-25 06:31:00,43.5,41.6,30.22,SW,230,0.0,0.0,93,0.00,,,0.00,Wunderground v.1.15,2013-05-25 10:31:00,
2013-05-25 06:41:00,44.0,41.8,30.22,NW,304,0.0,0.0,92,0.00,,,0.00,Wunderground v.1.15,2013-05-25 10:41:00,
2013-05-25 06:51:00,44.2,42.0,30.22,WNW,298,0.0,0.0,92,0.00,,,0.00,Wunderground v.1.15,2013-05-25 10:51:00,
2013-05-25 07:01:00,45.9,44.0,30.23,WNW,298,0.0,0.0,93,0.00,,,0.00,Wunderground v.1.15,2013-05-25 11:01:00,
2013-05-25 07:11:00,47.0,44.2,30.24,West,270,0.0,1.0,90,0.00,,,0.00,Wunderground v.1.15,2013-05-25 11:11:00,
2013-05-25 07:21:00,48.4,45.3,30.24,WNW,298,2.0,2.0,89,0.00,,,0.00,Wunderground v.1.15,2013-05-25 11:21:00,
2013-05-25 07:31:00,50.0,45.7,30.25,SSW,195,0.0,0.0,85,0.00,,,0.00,Wunderground v.1.15,2013-05-25 11:31:00,
2013-05-25 07:41:00,51.7,46.4,30.25,SSW,195,0.0,0.0,82,0.00,,,0.00,Wunderground v.1.15,2013-05-25 11:41:00,
2013-05-25 07:51:00,52.9,46.6,30.25,West,275,1.0,1.0,79,0.00,,,0.00,Wunderground v.1.15,2013-05-25 11:51:00,
2013-05-25 08:01:00,53.9,47.5,30.26,West,271,1.0,1.0,79,0.00,,,0.00,Wunderground v.1.15,2013-05-25 12:01:00,
2013-05-25 08:11:00,55.3,46.4,30.26,NW,306,1.0,1.0,72,0.00,,,0.00,Wunderground v.1.15,2013-05-25 12:11:00,
2013-05-25 08:21:00,56.4,46.7,30.26,SW,219,1.0,3.0,70,0.00,,,0.00,Wunderground v.1.15,2013-05-25 12:21:00,
2013-05-25 08:31:00,56.6,46.9,30.26,SSE,161,2.0,3.0,70,0.00,,,0.00,Wunderground v.1.15,2013-05-25 12:31:00,
2013-05-25 08:41:00,57.2,47.1,30.26,SSE,165,1.0,1.0,69,0.00,,,0.00,Wunderground v.1.15,2013-05-25 12:41:00,
2013-05-25 08:51:00,57.8,46.1,30.27,SSW,192,1.0,1.0,65,0.00,,,0.00,Wunderground v.1.15,2013-05-25 12:51:00,
2013-05-25 09:01:00,58.8,49.0,30.27,ESE,115,0.0,0.0,70,0.00,,,0.00,Wunderground v.1.15,2013-05-25 13:01:00,
2013-05-25 09:11:00,59.2,46.6,30.27,ENE,76,2.0,2.0,63,0.00,,,0.00,Wunderground v.1.15,2013-05-25 13:11:00,
2013-05-25 09:21:00,60.0,47.4,30.27,ESE,102,2.0,4.0,63,0.00,,,0.00,Wunderground v.1.15,2013-05-25 13:21:00,
2013-05-25 09:31:00,60.1,47.5,30.28,East,80,2.0,3.0,63,0.00,,,0.00,Wunderground v.1.15,2013-05-25 13:31:00,
2013-05-25 09:41:00,60.8,46.8,30.27,ESE,111,2.0,2.0,60,0.00,,,0.00,Wunderground v.1.15,2013-05-25 13:41:00,
2013-05-25 09:51:00,61.5,46.1,30.28,SSE,147,2.0,2.0,57,0.00,,,0.00,Wunderground v.1.15,2013-05-25 13:51:00,
2013-05-25 10:01:00,62.1,48.0,30.28,ESE,117,2.0,3.0,60,0.00,,,0.00,Wunderground v.1.15,2013-05-25 14:01:00,
2013-05-25 10:11:00,63.2,49.1,30.28,SE,144,1.0,2.0,60,0.00,,,0.00,Wunderground v.1.15,2013-05-25 14:11:00,
2013-05-25 10:21:00,63.4,48.8,30.28,East,81,2.0,3.0,59,0.00,,,0.00,Wunderground v.1.15,2013-05-25 14:21:00,
2013-05-25 10:31:00,64.2,47.7,30.28,SE,130,2.0,2.0,55,0.00,,,0.00,Wunderground v.1.15,2013-05-25 14:31:00,
2013-05-25 10:41:00,64.5,45.4,30.28,ESE,107,2.0,3.0,50,0.00,,,0.00,Wunderground v.1.15,2013-05-25 14:41:00,
2013-05-25 10:51:00,64.4,47.4,30.28,NNE,33,2.0,2.0,54,0.00,,,0.00,Wunderground v.1.15,2013-05-25 14:51:00,
2013-05-25 11:01:00,65.0,47.4,30.27,North,5,2.0,2.0,53,0.00,,,0.00,Wunderground v.1.15,2013-05-25 15:01:00,
2013-05-25 11:11:00,65.8,46.6,30.27,WNW,296,1.0,2.0,50,0.00,,,0.00,Wunderground v.1.15,2013-05-25 15:11:00,
2013-05-25 11:21:00,66.2,45.4,30.27,South,189,2.0,2.0,47,0.00,,,0.00,Wunderground v.1.15,2013-05-25 15:21:00,
2013-05-25 11:31:00,66.9,47.6,30.27,South,188,1.0,3.0,50,0.00,,,0.00,Wunderground v.1.15,2013-05-25 15:31:00,
2013-05-25 11:41:00,67.6,46.1,30.27,SW,225,3.0,5.0,46,0.00,,,0.00,Wunderground v.1.15,2013-05-25 15:41:00,
2013-05-25 11:51:00,68.4,45.0,30.27,SSE,159,3.0,3.0,43,0.00,,,0.00,Wunderground v.1.15,2013-05-25 15:51:00,
2013-05-25 12:01:00,69.2,47.5,30.27,WSW,240,3.0,4.0,46,0.00,,,0.00,Wunderground v.1.15,2013-05-25 16:01:00,
2013-05-25 12:11:00,69.2,47.5,30.26,SSW,194,2.0,5.0,46,0.00,,,0.00,Wunderground v.1.15,2013-05-25 16:11:00,
2013-05-25 12:21:00,69.1,46.9,30.26,ESE,113,3.0,3.0,45,0.00,,,0.00,Wunderground v.1.15,2013-05-25 16:21:00,
2013-05-25 12:31:00,70.0,46.5,30.26,SSE,167,4.0,5.0,43,0.00,,,0.00,Wunderground v.1.15,2013-05-25 16:31:00,
2013-05-25 12:41:00,70.4,46.2,30.26,WSW,239,3.0,6.0,42,0.00,,,0.00,Wunderground v.1.15,2013-05-25 16:41:00,
2013-05-25 12:51:00,70.0,44.6,30.25,West,269,4.0,4.0,40,0.00,,,0.00,Wunderground v.1.15,2013-05-25 16:51:00,
2013-05-25 13:01:00,70.3,44.2,30.25,South,185,4.0,4.0,39,0.00,,,0.00,Wunderground v.1.15,2013-05-25 17:01:00,
2013-05-25 13:11:00,70.8,42.5,30.24,SSW,208,5.0,6.0,36,0.00,,,0.00,Wunderground v.1.15,2013-05-25 17:11:00,
2013-05-25 13:21:00,71.3,41.5,30.23,SSW,209,4.0,7.0,34,0.00,,,0.00,Wunderground v.1.15,2013-05-25 17:21:00,
2013-05-25 13:31:00,71.5,49.0,30.22,West,263,4.0,6.0,45,0.00,,,0.00,Wunderground v.1.15,2013-05-25 17:31:00,
2013-05-25 13:41:00,71.7,44.7,30.22,WSW,243,5.0,5.0,38,0.00,,,0.00,Wunderground v.1.15,2013-05-25 17:41:00,
2013-05-25 13:51:00,72.2,42.3,30.22,SSW,201,7.0,7.0,34,0.00,,,0.00,Wunderground v.1.15,2013-05-25 17:51:00,
2013-05-25 14:01:00,72.2,42.3,30.21,South,184,3.0,3.0,34,0.00,,,0.00,Wunderground v.1.15,2013-05-25 18:01:00,
2013-05-25 14:11:00,72.9,45.8,30.21,South,182,5.0,5.0,38,0.00,,,0.00,Wunderground v.1.15,2013-05-25 18:11:00,
2013-05-25 14:21:00,73.0,45.2,30.20,WSW,238,5.0,5.0,37,0.00,,,0.00,Wunderground v.1.15,2013-05-25 18:21:00,
2013-05-25 14:31:00,73.2,44.6,30.20,SSW,203,6.0,6.0,36,0.00,,,0.00,Wunderground v.1.15,2013-05-25 18:31:00,
2013-05-25 14:41:00,73.4,46.2,30.20,SSE,157,6.0,6.0,38,0.00,,,0.00,Wunderground v.1.15,2013-05-25 18:41:00,
2013-05-25 14:51:00,73.7,45.8,30.20,West,261,5.0,7.0,37,0.00,,,0.00,Wunderground v.1.15,2013-05-25 18:51:00,
2013-05-25 15:01:00,73.7,44.3,30.20,WSW,254,5.0,9.0,35,0.00,,,0.00,Wunderground v.1.15,2013-05-25 19:01:00,
2013-05-25 15:11:00,74.2,46.2,30.19,SSW,211,5.0,5.0,37,0.00,,,0.00,Wunderground v.1.15,2013-05-25 19:11:00,
2013-05-25 15:21:00,74.0,46.1,30.18,SSW,213,5.0,5.0,37,0.00,,,0.00,Wunderground v.1.15,2013-05-25 19:21:00,
2013-05-25 15:31:00,74.5,47.2,30.17,SSW,197,5.0,9.0,38,0.00,,,0.00,Wunderground v.1.15,2013-05-25 19:31:00,
2013-05-25 15:41:00,74.2,45.5,30.17,SSW,207,5.0,5.0,36,0.00,,,0.00,Wunderground v.1.15,2013-05-25 19:41:00,
2013-05-25 15:51:00,74.6,48.7,30.17,West,271,3.0,4.0,40,0.00,,,0.00,Wunderground v.1.15,2013-05-25 19:51:00,
2013-05-25 16:01:00,74.7,48.8,30.17,WSW,248,6.0,6.0,40,0.00,,,0.00,Wunderground v.1.15,2013-05-25 20:01:00,
2013-05-25 16:11:00,74.9,46.9,30.17,West,267,5.0,5.0,37,0.00,,,0.00,Wunderground v.1.15,2013-05-25 20:11:00,
2013-05-25 16:21:00,75.4,47.3,30.16,WSW,250,5.0,12.0,37,0.00,,,0.00,Wunderground v.1.15,2013-05-25 20:21:00,
2013-05-25 16:31:00,75.2,45.7,30.16,WSW,253,7.0,7.0,35,0.00,,,0.00,Wunderground v.1.15,2013-05-25 20:31:00,
2013-05-25 16:41:00,75.4,45.8,30.16,WSW,254,5.0,5.0,35,0.00,,,0.00,Wunderground v.1.15,2013-05-25 20:41:00,
2013-05-25 16:51:00,74.9,43.8,30.16,SSW,213,6.0,7.0,33,0.00,,,0.00,Wunderground v.1.15,2013-05-25 20:51:00,
2013-05-25 17:01:00,74.7,45.2,30.16,WSW,242,6.0,6.0,35,0.00,,,0.00,Wunderground v.1.15,2013-05-25 21:01:00,
2013-05-25 17:11:00,75.0,47.7,30.16,SSW,200,4.0,7.0,38,0.00,,,0.00,Wunderground v.1.15,2013-05-25 21:11:00,
2013-05-25 17:21:00,74.9,46.9,30.16,SW,236,6.0,7.0,37,0.00,,,0.00,Wunderground v.1.15,2013-05-25 21:21:00,
2013-05-25 17:31:00,74.3,44.9,30.15,SW,223,6.0,6.0,35,0.00,,,0.00,Wunderground v.1.15,2013-05-25 21:31:00,
2013-05-25 17:41:00,75.1,46.3,30.15,WSW,240,4.0,7.0,36,0.00,,,0.00,Wunderground v.1.15,2013-05-25 21:41:00,
2013-05-25 17:51:00,74.9,48.3,30.15,SW,216,6.0,6.0,39,0.00,,,0.00,Wunderground v.1.15,2013-05-25 21:51:00,
2013-05-25 18:01:00,75.0,47.7,30.15,SSW,193,5.0,5.0,38,0.00,,,0.00,Wunderground v.1.15,2013-05-25 22:01:00,
2013-05-25 18:11:00,74.6,48.0,30.15,West,269,6.0,6.0,39,0.00,,,0.00,Wunderground v.1.15,2013-05-25 22:11:00,
2013-05-25 18:21:00,74.5,47.2,30.15,SW,218,6.0,8.0,38,0.00,,,0.00,Wunderground v.1.15,2013-05-25 22:21:00,
2013-05-25 18:31:00,74.3,47.0,30.15,WSW,237,5.0,5.0,38,0.00,,,0.00,Wunderground v.1.15,2013-05-25 22:31:00,
2013-05-25 18:41:00,74.4,49.8,30.15,SW,225,3.0,3.0,42,0.00,,,0.00,Wunderground v.1.15,2013-05-25 22:41:00,
2013-05-25 18:51:00,74.0,48.8,30.14,SSW,213,4.0,4.0,41,0.00,,,0.00,Wunderground v.1.15,2013-05-25 22:51:00,
2013-05-25 19:01:00,72.9,48.5,30.14,SW,215,4.0,4.0,42,0.00,,,0.00,Wunderground v.1.15,2013-05-25 23:01:00,
2013-05-25 19:21:00,73.1,51.1,30.14,SW,231,3.0,3.0,46,0.00,,,0.00,Wunderground v.1.15,2013-05-25 23:21:00,
2013-05-25 19:31:00,72.8,50.2,30.14,West,261,2.0,2.0,45,0.00,,,0.00,Wunderground v.1.15,2013-05-25 23:31:00,
2013-05-25 19:41:00,72.2,49.7,30.15,WSW,246,1.0,1.0,45,0.00,,,0.00,Wunderground v.1.15,2013-05-25 23:41:00,
2013-05-25 19:51:00,71.7,50.4,30.15,WSW,246,1.0,1.0,47,0.00,,,0.00,Wunderground v.1.15,2013-05-25 23:51:00,
2013-05-25 20:01:00,70.6,51.6,30.15,WSW,246,1.0,2.0,51,0.00,,,0.00,Wunderground v.1.15,2013-05-26 00:01:00,
2013-05-25 20:11:00,69.5,51.6,30.15,SW,236,1.0,1.0,53,0.00,,,0.00,Wunderground v.1.15,2013-05-26 00:11:00,
2013-05-25 20:21:00,68.3,52.5,30.15,SW,236,1.0,1.0,57,0.00,,,0.00,Wunderground v.1.15,2013-05-26 00:21:00,
2013-05-25 20:31:00,66.4,53.4,30.15,SW,236,0.0,0.0,63,0.00,,,0.00,Wunderground v.1.15,2013-05-26 00:31:00,
2013-05-25 20:41:00,65.5,53.0,30.15,SW,236,0.0,0.0,64,0.00,,,0.00,Wunderground v.1.15,2013-05-26 00:41:00,
2013-05-25 20:51:00,64.6,53.0,30.15,SW,236,0.0,0.0,66,0.00,,,0.00,Wunderground v.1.15,2013-05-26 00:51:00,
2013-05-25 21:01:00,64.0,54.0,30.15,SW,236,0.0,0.0,70,0.00,,,0.00,Wunderground v.1.15,2013-05-26 01:01:00,
2013-05-25 21:11:00,62.8,53.3,30.16,SW,236,0.0,0.0,71,0.00,,,0.00,Wunderground v.1.15,2013-05-26 01:11:00,
2013-05-25 21:21:00,62.3,54.6,30.15,SW,236,0.0,0.0,76,0.00,,,0.00,Wunderground v.1.15,2013-05-26 01:21:00,
2013-05-25 21:31:00,61.4,53.4,30.16,SW,236,0.0,0.0,75,0.00,,,0.00,Wunderground v.1.15,2013-05-26 01:31:00,
2013-05-25 21:41:00,61.0,53.7,30.15,SW,236,0.0,0.0,77,0.00,,,0.00,Wunderground v.1.15,2013-05-26 01:41:00,
2013-05-25 21:51:00,61.0,54.1,30.15,SW,236,0.0,0.0,78,0.00,,,0.00,Wunderground v.1.15,2013-05-26 01:51:00,
2013-05-25 22:01:00,60.5,53.6,30.16,SW,236,0.0,0.0,78,0.00,,,0.00,Wunderground v.1.15,2013-05-26 02:01:00,
2013-05-25 22:11:00,59.9,53.7,30.15,SW,236,0.0,0.0,80,0.00,,,0.00,Wunderground v.1.15,2013-05-26 02:11:00,
2013-05-25 22:21:00,59.4,53.6,30.15,SW,236,0.0,0.0,81,0.00,,,0.00,Wunderground v.1.15,2013-05-26 02:21:00,
2013-05-25 22:31:00,59.0,53.2,30.15,SW,236,0.0,0.0,81,0.00,,,0.00,Wunderground v.1.15,2013-05-26 02:31:00,
2013-05-25 22:41:00,58.3,53.2,30.15,SW,236,0.0,0.0,83,0.00,,,0.00,Wunderground v.1.15,2013-05-26 02:41:00,
2013-05-25 22:51:00,57.3,53.1,30.15,SW,236,0.0,0.0,86,0.00,,,0.00,Wunderground v.1.15,2013-05-26 02:51:00,
2013-05-25 23:01:00,56.7,53.2,30.15,SW,236,0.0,0.0,88,0.00,,,0.00,Wunderground v.1.15,2013-05-26 03:01:00,
2013-05-25 23:11:00,56.8,53.3,30.15,SW,236,0.0,0.0,88,0.00,,,0.00,Wunderground v.1.15,2013-05-26 03:11:00,
2013-05-25 23:21:00,57.3,53.5,30.15,SW,236,0.0,0.0,87,0.00,,,0.00,Wunderground v.1.15,2013-05-26 03:21:00,
2013-05-25 23:31:00,57.1,53.3,30.14,SW,236,0.0,0.0,87,0.00,,,0.00,Wunderground v.1.15,2013-05-26 03:31:00,
2013-05-25 23:41:00,56.4,53.2,30.13,SW,236,0.0,0.0,89,0.00,,,0.00,Wunderground v.1.15,2013-05-26 03:41:00,
2013-05-25 23:51:00,55.5,52.3,30.14,West,267,0.0,0.0,89,0.00,,,0.00,Wunderground v.1.15,2013-05-26 03:51:00,